Avant, Oklahoma
Current Conditions -  °F | °C
As of 2:53 AM on Monday 20 Oct 2014 (Local Time) from KBVO Reporting Station
Broken Clouds Broken Clouds  
Wind Chill: 56°   Ceiling: 6500
Heat Index: 56°   Visibility: 10mi
Dew Point: 55°   Wind: 0mph
Humidity: 97%   Direction: NA
Pressure: 30.05"   Gusts: NA
Location:  36.49°N, 96.06°W
Report Text: KBVO 200753Z AUTO 00000KT 10SM BKN065 BKN080 BKN100 13/13 A3005 RMK AO2 SLP168 T01330128
Loading
Personal Weather Stations






























Interactive Weather Map
Tropical Storm Tracking
New forecast layout! Learn more

10-Day Weather Forecast

Advertisements
Track Severe Weather on mobile